createdAt,value
2023-06-24T15:33:40.066Z,30.03
2023-06-24T15:36:12.959Z,29.81
2023-06-24T15:38:48.061Z,30.81
2023-06-24T15:41:21.071Z,30.55
2023-06-24T15:43:54.077Z,31.23
2023-06-24T15:46:27.428Z,30.16
2023-06-24T15:49:01.762Z,31.06
2023-06-24T15:51:34.592Z,30.81
2023-06-24T15:54:07.746Z,30.66
2023-06-24T15:56:40.587Z,31.11
2023-06-24T15:59:13.593Z,30.94
2023-06-24T16:01:46.543Z,30.61
2023-06-24T16:04:20.865Z,30.09
2023-06-24T16:06:53.744Z,31.05
2023-06-24T16:09:26.599Z,30.77
2023-06-24T16:11:59.455Z,30.31
2023-06-24T16:14:32.285Z,30.99
2023-06-24T16:17:05.674Z,31.24
2023-06-24T16:19:40.081Z,30.40
2023-06-24T16:22:12.993Z,31.21
2023-06-24T16:24:46.014Z,31.31
2023-06-24T16:27:18.865Z,31.09
2023-06-24T16:29:51.690Z,30.91
2023-06-24T16:32:24.856Z,30.28
2023-06-24T16:34:59.190Z,31.14
2023-06-24T16:37:31.982Z,31.03
2023-06-24T16:40:05.136Z,30.50
2023-06-24T16:42:37.988Z,30.74
2023-06-24T16:45:11.397Z,30.72
2023-06-24T16:47:44.341Z,30.35
2023-06-24T16:50:18.577Z,30.63
2023-06-24T16:52:51.390Z,30.34
2023-06-24T16:55:24.385Z,30.46
2023-06-24T16:57:57.225Z,30.06
2023-06-24T17:00:30.111Z,30.23
2023-06-24T17:03:03.232Z,29.81
2023-06-24T17:05:40.866Z,30.23
2023-06-24T17:08:14.020Z,29.59
2023-06-24T17:10:46.993Z,30.02
2023-06-24T17:13:20.648Z,29.78
2023-06-24T17:15:53.552Z,29.83
2023-06-24T17:18:26.399Z,29.98
2023-06-24T17:42:28.179Z,28.72
2023-06-24T17:45:01.011Z,28.75
2023-06-24T17:47:33.875Z,28.47
2023-06-24T17:50:07.303Z,28.57
2023-06-24T17:52:40.231Z,28.40
2023-06-24T17:55:13.096Z,28.15
2023-06-24T17:57:47.347Z,28.32
2023-06-24T18:00:20.374Z,27.98
2023-06-24T18:02:53.276Z,28.12
2023-06-24T18:05:26.335Z,27.60
2023-06-24T18:07:59.993Z,27.37
2023-06-24T18:10:33.854Z,27.45
2023-06-24T18:13:08.186Z,27.40
2023-06-24T18:15:41.019Z,27.53
2023-06-24T18:18:13.829Z,27.38
2023-06-24T18:20:46.662Z,27.48
2023-06-24T18:23:19.443Z,27.47
2023-06-24T18:25:52.308Z,27.03
2023-06-24T18:28:26.469Z,26.88
2023-06-24T18:30:59.349Z,26.64
2023-06-24T18:33:32.283Z,26.62
2023-06-24T18:36:05.087Z,26.40
2023-06-24T18:38:38.196Z,25.95
2023-06-24T18:41:11.494Z,25.95
2023-06-24T18:43:45.711Z,25.60
2023-06-24T18:46:19.843Z,25.78
2023-06-24T18:48:53.094Z,25.67
2023-06-24T18:51:25.892Z,25.57
2023-06-24T18:53:58.805Z,25.35
2023-06-24T18:56:31.591Z,25.22
2023-06-24T18:59:05.796Z,24.92
2023-06-24T19:01:38.644Z,25.12
2023-06-24T19:04:11.483Z,25.00
2023-06-24T19:06:44.948Z,24.85
2023-06-24T19:09:17.813Z,24.97
2023-06-24T19:11:50.658Z,24.92
2023-06-24T19:14:24.823Z,24.86
2023-06-24T19:16:57.964Z,24.77
2023-06-24T19:19:30.894Z,24.67
2023-06-24T19:22:04.908Z,24.54
2023-06-24T19:24:39.524Z,24.40
2023-06-24T19:27:12.369Z,24.30
2023-06-24T19:29:46.708Z,24.17
2023-06-24T19:32:19.693Z,23.91
2023-06-24T19:34:52.733Z,23.84
2023-06-24T19:37:25.555Z,23.61
2023-06-24T19:39:59.169Z,23.60
2023-06-24T19:42:32.141Z,23.09
2023-06-24T19:45:08.218Z,22.75
2023-06-24T19:47:41.323Z,22.42
2023-06-24T19:50:14.388Z,22.57
2023-06-24T19:52:47.718Z,22.77
2023-06-24T19:55:20.843Z,22.77
2023-06-24T19:57:53.844Z,22.74
2023-06-24T20:00:28.119Z,22.53
2023-06-24T20:03:03.685Z,22.28
2023-06-24T20:05:36.618Z,22.29
2023-06-24T20:08:09.527Z,22.17
2023-06-24T20:10:42.435Z,22.06
2023-06-24T20:13:15.368Z,21.92
2023-06-24T20:15:49.740Z,21.93
2023-06-24T20:18:24.657Z,21.69
2023-06-24T20:20:57.554Z,21.33
2023-06-24T20:23:30.408Z,21.23
2023-06-24T20:26:03.249Z,21.15
2023-06-24T20:28:36.055Z,21.05
2023-06-24T20:31:10.665Z,21.02
2023-06-24T20:33:43.693Z,20.85
2023-06-24T20:36:17.404Z,20.92
2023-06-24T20:38:50.212Z,20.78
2023-06-24T20:41:24.542Z,20.69
2023-06-24T20:43:57.462Z,20.65
2023-06-24T20:46:31.866Z,20.50
2023-06-24T20:49:05.108Z,20.19
2023-06-24T20:51:40.434Z,20.12
2023-06-24T20:54:13.594Z,20.31
2023-06-24T20:56:46.571Z,20.04
2023-06-24T20:59:19.567Z,20.02
2023-06-24T21:01:54.168Z,19.88
2023-06-24T21:04:27.085Z,20.07
2023-06-24T21:07:00.075Z,19.75
2023-06-24T21:09:33.041Z,19.26
2023-06-24T21:12:06.906Z,19.34
2023-06-24T21:14:39.842Z,19.19
2023-06-24T21:17:14.124Z,19.19
2023-06-24T21:19:46.978Z,19.17
2023-06-24T21:22:19.951Z,19.27
2023-06-24T21:24:52.854Z,19.23
2023-06-24T21:27:25.674Z,19.14
2023-06-24T21:29:58.635Z,18.91
2023-06-24T21:32:33.494Z,18.44
2023-06-24T21:35:07.569Z,18.55
2023-06-24T21:37:40.549Z,18.40
2023-06-24T21:40:14.780Z,18.67
2023-06-24T21:42:49.686Z,18.21
2023-06-24T21:45:22.855Z,18.46
2023-06-24T21:47:57.093Z,18.65
2023-06-24T21:50:30.013Z,18.53
2023-06-24T21:53:03.010Z,18.47
2023-06-24T21:55:35.950Z,18.40
2023-06-24T21:58:08.778Z,18.52
2023-06-24T22:00:43.546Z,18.60
2023-06-24T22:03:18.258Z,18.65
2023-06-24T22:05:53.372Z,18.52
2023-06-24T22:08:26.443Z,18.51
2023-06-24T22:10:59.325Z,18.29
2023-06-24T22:13:32.285Z,18.30
2023-06-24T22:16:05.432Z,18.01
2023-06-24T22:18:39.723Z,18.20
2023-06-24T22:21:12.545Z,17.67
2023-06-24T22:23:45.390Z,18.08
2023-06-24T22:26:18.298Z,18.15
2023-06-24T22:28:51.325Z,17.92
2023-06-24T22:31:24.184Z,17.97
2023-06-24T22:33:58.381Z,17.71
2023-06-24T22:36:31.236Z,17.64
2023-06-24T22:39:04.240Z,17.38
2023-06-24T22:41:37.098Z,17.29
2023-06-24T22:44:11.480Z,17.33
2023-06-24T22:46:44.763Z,17.08
2023-06-24T22:49:19.798Z,17.18
2023-06-24T22:51:56.018Z,17.04
2023-06-24T22:54:29.732Z,17.16
2023-06-24T22:57:19.465Z,16.69
2023-06-24T22:59:53.631Z,16.90
2023-06-24T23:02:28.385Z,17.01
2023-06-24T23:05:03.593Z,16.92
2023-06-24T23:07:37.228Z,16.42
2023-06-24T23:10:10.990Z,16.53
2023-06-24T23:12:47.915Z,16.51
2023-06-24T23:15:21.058Z,16.80
2023-06-24T23:17:56.482Z,16.93
2023-06-24T23:20:31.540Z,16.83
2023-06-24T23:23:04.911Z,16.69
2023-06-24T23:25:40.836Z,16.73
2023-06-24T23:28:27.243Z,16.57
2023-06-24T23:31:05.812Z,16.81
2023-06-24T23:33:39.100Z,16.74
2023-06-24T23:36:14.998Z,15.89
2023-06-24T23:38:51.068Z,16.29
2023-06-24T23:41:29.391Z,16.44
2023-06-24T23:44:07.204Z,16.29
2023-06-24T23:46:47.211Z,16.10
2023-06-24T23:49:29.994Z,16.11
2023-06-24T23:52:06.150Z,16.27
2023-06-24T23:54:39.016Z,16.23
2023-06-24T23:57:11.868Z,16.21
2023-06-24T23:59:44.806Z,16.33
